PWSweather.com
Personal Weather Stations
Station Observations
KD8WUI
Pittsfield Township, Ypsilanti, MI 48197

Pittsfield TownshipYpsilanti, MI 48197

Lat: 42.235735, Lon: -83.66522199999997

Elevation: 840

Station Type: Davis VPro2

High Low Average
Temperature 90.3°F32.4°C 65.8°F18.8°C 75.2°F24.0°C
Dew Point 77.2°F25.1°C 59.5°F15.3°C 69.3°F20.7°C
Winds 4.4 mph 7.1 kmh Calm Calm 1.0 mph S1.6 kmh S
Wind Gusts 15.0 mph24.1 kmh -- 4.0 mph6.4 kmh
Humidity 97% 62% 83%
Pressure 29.95 in1014.2 mb 29.82 in1009.8 mb -
Precipitation 0.56 in14.2 mm - -
Hour Temp Dew Point Humidity Winds Wind Gusts Pressure Precip Precip Rate Daily Precip Total
12:01 AM 69.1°F20.6°C 65.1°F18.4°C 87% Calm Calm -- 29.96 in1014.6 mb 0.00 in0.0 mm 0.00 in0.0 mm 0.00 in0.0 mm
12:06 AM 69.0°F20.6°C 65.0°F18.3°C 87% Calm Calm -- 29.96 in1014.6 mb 0.00 in0.0 mm 0.00 in0.0 mm 0.00 in0.0 mm
12:11 AM 68.8°F20.4°C 65.1°F18.4°C 88% Calm Calm -- 29.96 in1014.6 mb 0.00 in0.0 mm 0.00 in0.0 mm 0.00 in0.0 mm
12:16 AM 68.6°F20.3°C 64.9°F18.3°C 88% Calm Calm -- 29.96 in1014.6 mb 0.00 in0.0 mm 0.00 in0.0 mm 0.00 in0.0 mm
12:21 AM 68.6°F20.3°C 65.2°F18.4°C 89% Calm Calm -- 29.96 in1014.6 mb 0.00 in0.0 mm 0.00 in0.0 mm 0.00 in0.0 mm
12:26 AM 68.5°F20.3°C 65.1°F18.4°C 89% Calm Calm -- 29.96 in1014.6 mb 0.00 in0.0 mm 0.00 in0.0 mm 0.00 in0.0 mm
12:31 AM 68.3°F20.2°C 65.2°F18.4°C 90% Calm Calm -- 29.96 in1014.6 mb 0.00 in0.0 mm 0.00 in0.0 mm 0.00 in0.0 mm
12:36 AM 68.2°F20.1°C 64.8°F18.2°C 89% Calm Calm -- 29.96 in1014.6 mb 0.00 in0.0 mm 0.00 in0.0 mm 0.00 in0.0 mm
12:41 AM 68.0°F20.0°C 64.9°F18.3°C 90% Calm Calm -- 29.95 in1014.2 mb 0.00 in0.0 mm 0.00 in0.0 mm 0.00 in0.0 mm
12:46 AM 67.9°F19.9°C 64.9°F18.3°C 90% Calm Calm -- 29.95 in1014.2 mb 0.00 in0.0 mm 0.00 in0.0 mm 0.00 in0.0 mm
12:51 AM 67.8°F19.9°C 65.1°F18.4°C 91% Calm Calm -- 29.95 in1014.2 mb 0.00 in0.0 mm 0.00 in0.0 mm 0.00 in0.0 mm
12:56 AM 67.8°F19.9°C 65.1°F18.4°C 91% Calm Calm -- 29.95 in1014.2 mb 0.00 in0.0 mm 0.00 in0.0 mm 0.00 in0.0 mm
01:01 AM 67.7°F19.8°C 65.0°F18.3°C 91% Calm Calm -- 29.95 in1014.2 mb 0.00 in0.0 mm 0.00 in0.0 mm 0.00 in0.0 mm
01:06 AM 67.6°F19.8°C 65.2°F18.4°C 92% Calm Calm -- 29.95 in1014.2 mb 0.00 in0.0 mm 0.00 in0.0 mm 0.00 in0.0 mm
01:11 AM 67.4°F19.7°C 65.0°F18.3°C 92% Calm Calm -- 29.95 in1014.2 mb 0.00 in0.0 mm 0.00 in0.0 mm 0.00 in0.0 mm
01:16 AM 67.3°F19.6°C 65.2°F18.4°C 93% Calm Calm -- 29.95 in1014.2 mb 0.00 in0.0 mm 0.00 in0.0 mm 0.00 in0.0 mm
01:21 AM 67.2°F19.6°C 65.1°F18.4°C 93% Calm Calm -- 29.95 in1014.2 mb 0.00 in0.0 mm 0.00 in0.0 mm 0.00 in0.0 mm
01:26 AM 67.2°F19.6°C 65.1°F18.4°C 93% Calm Calm -- 29.95 in1014.2 mb 0.00 in0.0 mm 0.00 in0.0 mm 0.00 in0.0 mm
01:32 AM 67.1°F19.5°C 64.7°F18.2°C 92% Calm Calm -- 29.95 in1014.2 mb 0.00 in0.0 mm 0.00 in0.0 mm 0.00 in0.0 mm
01:37 AM 67.1°F19.5°C 65.0°F18.3°C 93% Calm Calm -- 29.95 in1014.2 mb 0.00 in0.0 mm 0.00 in0.0 mm 0.00 in0.0 mm
01:41 AM 66.9°F19.4°C 64.8°F18.2°C 93% Calm Calm -- 29.95 in1014.2 mb 0.00 in0.0 mm 0.00 in0.0 mm 0.00 in0.0 mm
01:46 AM 66.8°F19.3°C 65.0°F18.3°C 94% Calm Calm -- 29.95 in1014.2 mb 0.00 in0.0 mm 0.00 in0.0 mm 0.00 in0.0 mm
01:52 AM 66.7°F19.3°C 64.9°F18.3°C 94% Calm Calm -- 29.95 in1014.2 mb 0.00 in0.0 mm 0.00 in0.0 mm 0.00 in0.0 mm
01:57 AM 66.7°F19.3°C 64.9°F18.3°C 94% Calm Calm -- 29.95 in1014.2 mb 0.00 in0.0 mm 0.00 in0.0 mm 0.00 in0.0 mm
02:02 AM 66.5°F19.2°C 64.7°F18.2°C 94% Calm Calm -- 29.95 in1014.2 mb 0.00 in0.0 mm 0.00 in0.0 mm 0.00 in0.0 mm
02:07 AM 66.4°F19.1°C 64.6°F18.1°C 94% Calm Calm -- 29.95 in1014.2 mb 0.00 in0.0 mm 0.00 in0.0 mm 0.00 in0.0 mm
02:12 AM 66.3°F19.1°C 64.5°F18.1°C 94% Calm Calm -- 29.95 in1014.2 mb 0.00 in0.0 mm 0.00 in0.0 mm 0.00 in0.0 mm
02:17 AM 66.4°F19.1°C 64.6°F18.1°C 94% Calm Calm -- 29.95 in1014.2 mb 0.00 in0.0 mm 0.00 in0.0 mm 0.00 in0.0 mm
02:22 AM 66.5°F19.2°C 64.7°F18.2°C 94% Calm Calm -- 29.95 in1014.2 mb 0.00 in0.0 mm 0.00 in0.0 mm 0.00 in0.0 mm
02:27 AM 66.4°F19.1°C 64.6°F18.1°C 94% Calm Calm -- 29.94 in1013.9 mb 0.00 in0.0 mm 0.00 in0.0 mm 0.00 in0.0 mm
02:32 AM 66.4°F19.1°C 64.6°F18.1°C 94% Calm Calm -- 29.94 in1013.9 mb 0.00 in0.0 mm 0.00 in0.0 mm 0.00 in0.0 mm
02:37 AM 66.3°F19.1°C 64.5°F18.1°C 94% Calm Calm -- 29.94 in1013.9 mb 0.00 in0.0 mm 0.00 in0.0 mm 0.00 in0.0 mm
02:42 AM 66.2°F19.0°C 64.4°F18.0°C 94% Calm Calm -- 29.94 in1013.9 mb 0.00 in0.0 mm 0.00 in0.0 mm 0.00 in0.0 mm
02:47 AM 66.2°F19.0°C 64.4°F18.0°C 94% Calm Calm -- 29.94 in1013.9 mb 0.00 in0.0 mm 0.00 in0.0 mm 0.00 in0.0 mm
02:52 AM 66.3°F19.1°C 64.5°F18.1°C 94% Calm Calm -- 29.94 in1013.9 mb 0.00 in0.0 mm 0.00 in0.0 mm 0.00 in0.0 mm
02:57 AM 66.3°F19.1°C 64.2°F17.9°C 93% Calm Calm -- 29.93 in1013.5 mb 0.00 in0.0 mm 0.00 in0.0 mm 0.00 in0.0 mm
03:02 AM 66.3°F19.1°C 64.2°F17.9°C 93% Calm Calm -- 29.93 in1013.5 mb 0.00 in0.0 mm 0.00 in0.0 mm 0.00 in0.0 mm
03:07 AM 66.3°F19.1°C 64.2°F17.9°C 93% Calm Calm -- 29.93 in1013.5 mb 0.00 in0.0 mm 0.00 in0.0 mm 0.00 in0.0 mm
03:12 AM 66.1°F18.9°C 64.3°F17.9°C 94% Calm Calm -- 29.92 in1013.2 mb 0.00 in0.0 mm 0.00 in0.0 mm 0.00 in0.0 mm
03:17 AM 66.0°F18.9°C 64.2°F17.9°C 94% Calm Calm -- 29.92 in1013.2 mb 0.00 in0.0 mm 0.00 in0.0 mm 0.00 in0.0 mm
03:22 AM 66.0°F18.9°C 64.2°F17.9°C 94% Calm Calm -- 29.92 in1013.2 mb 0.00 in0.0 mm 0.00 in0.0 mm 0.00 in0.0 mm
03:27 AM 65.9°F18.8°C 64.1°F17.8°C 94% Calm Calm -- 29.92 in1013.2 mb 0.00 in0.0 mm 0.00 in0.0 mm 0.00 in0.0 mm
03:32 AM 65.8°F18.8°C 64.3°F17.9°C 95% Calm Calm -- 29.92 in1013.2 mb 0.00 in0.0 mm 0.00 in0.0 mm 0.00 in0.0 mm
03:37 AM 65.9°F18.8°C 64.4°F18.0°C 95% Calm Calm -- 29.91 in1012.9 mb 0.00 in0.0 mm 0.00 in0.0 mm 0.00 in0.0 mm
03:42 AM 65.9°F18.8°C 64.4°F18.0°C 95% Calm Calm -- 29.92 in1013.2 mb 0.00 in0.0 mm 0.00 in0.0 mm 0.00 in0.0 mm
03:47 AM 66.0°F18.9°C 64.5°F18.1°C 95% Calm Calm -- 29.92 in1013.2 mb 0.00 in0.0 mm 0.00 in0.0 mm 0.00 in0.0 mm
03:52 AM 66.1°F18.9°C 64.6°F18.1°C 95% Calm Calm -- 29.91 in1012.9 mb 0.00 in0.0 mm 0.00 in0.0 mm 0.00 in0.0 mm
03:57 AM 66.0°F18.9°C 64.5°F18.1°C 95% Calm Calm -- 29.92 in1013.2 mb 0.00 in0.0 mm 0.00 in0.0 mm 0.00 in0.0 mm
04:02 AM 65.9°F18.8°C 64.4°F18.0°C 95% Calm Calm -- 29.91 in1012.9 mb 0.00 in0.0 mm 0.00 in0.0 mm 0.00 in0.0 mm
04:07 AM 65.9°F18.8°C 64.4°F18.0°C 95% Calm Calm -- 29.91 in1012.9 mb 0.00 in0.0 mm 0.00 in0.0 mm 0.00 in0.0 mm
04:12 AM 66.0°F18.9°C 64.5°F18.1°C 95% Calm Calm -- 29.91 in1012.9 mb 0.00 in0.0 mm 0.00 in0.0 mm 0.00 in0.0 mm
04:17 AM 66.1°F18.9°C 64.6°F18.1°C 95% Calm Calm -- 29.90 in1012.5 mb 0.00 in0.0 mm 0.00 in0.0 mm 0.00 in0.0 mm
04:22 AM 66.0°F18.9°C 64.5°F18.1°C 95% Calm Calm -- 29.90 in1012.5 mb 0.00 in0.0 mm 0.00 in0.0 mm 0.00 in0.0 mm
04:27 AM 66.1°F18.9°C 64.6°F18.1°C 95% Calm Calm -- 29.90 in1012.5 mb 0.00 in0.0 mm 0.00 in0.0 mm 0.00 in0.0 mm
04:32 AM 66.1°F18.9°C 64.6°F18.1°C 95% Calm Calm -- 29.90 in1012.5 mb 0.00 in0.0 mm 0.00 in0.0 mm 0.00 in0.0 mm
04:37 AM 66.2°F19.0°C 64.7°F18.2°C 95% Calm Calm -- 29.90 in1012.5 mb 0.00 in0.0 mm 0.00 in0.0 mm 0.00 in0.0 mm
04:42 AM 66.2°F19.0°C 64.7°F18.2°C 95% Calm Calm -- 29.90 in1012.5 mb 0.00 in0.0 mm 0.00 in0.0 mm 0.00 in0.0 mm
04:47 AM 66.2°F19.0°C 64.7°F18.2°C 95% Calm Calm -- 29.90 in1012.5 mb 0.00 in0.0 mm 0.00 in0.0 mm 0.00 in0.0 mm
04:52 AM 66.4°F19.1°C 64.9°F18.3°C 95% Calm Calm -- 29.90 in1012.5 mb 0.00 in0.0 mm 0.00 in0.0 mm 0.00 in0.0 mm
04:57 AM 66.5°F19.2°C 65.0°F18.3°C 95% Calm Calm -- 29.90 in1012.5 mb 0.00 in0.0 mm 0.00 in0.0 mm 0.00 in0.0 mm
05:02 AM 66.6°F19.2°C 64.8°F18.2°C 94% Calm Calm -- 29.90 in1012.5 mb 0.00 in0.0 mm 0.00 in0.0 mm 0.00 in0.0 mm
05:07 AM 66.6°F19.2°C 64.8°F18.2°C 94% Calm Calm -- 29.90 in1012.5 mb 0.00 in0.0 mm 0.00 in0.0 mm 0.00 in0.0 mm
05:12 AM 66.6°F19.2°C 64.8°F18.2°C 94% Calm Calm -- 29.91 in1012.9 mb 0.00 in0.0 mm 0.00 in0.0 mm 0.00 in0.0 mm
05:17 AM 66.5°F19.2°C 65.0°F18.3°C 95% Calm Calm -- 29.90 in1012.5 mb 0.00 in0.0 mm 0.00 in0.0 mm 0.00 in0.0 mm
05:22 AM 66.5°F19.2°C 65.0°F18.3°C 95% Calm Calm -- 29.90 in1012.5 mb 0.00 in0.0 mm 0.00 in0.0 mm 0.00 in0.0 mm
05:27 AM 66.4°F19.1°C 64.9°F18.3°C 95% Calm Calm -- 29.90 in1012.5 mb 0.00 in0.0 mm 0.00 in0.0 mm 0.00 in0.0 mm
05:32 AM 66.4°F19.1°C 64.9°F18.3°C 95% Calm Calm -- 29.90 in1012.5 mb 0.00 in0.0 mm 0.00 in0.0 mm 0.00 in0.0 mm
05:37 AM 66.5°F19.2°C 65.3°F18.5°C 96% Calm Calm -- 29.90 in1012.5 mb 0.00 in0.0 mm 0.00 in0.0 mm 0.00 in0.0 mm
05:42 AM 66.5°F19.2°C 65.0°F18.3°C 95% Calm Calm -- 29.90 in1012.5 mb 0.00 in0.0 mm 0.00 in0.0 mm 0.00 in0.0 mm
05:47 AM 66.5°F19.2°C 65.0°F18.3°C 95% Calm Calm -- 29.90 in1012.5 mb 0.00 in0.0 mm 0.00 in0.0 mm 0.00 in0.0 mm
05:52 AM 66.5°F19.2°C 65.3°F18.5°C 96% Calm Calm -- 29.90 in1012.5 mb 0.00 in0.0 mm 0.00 in0.0 mm 0.00 in0.0 mm
05:57 AM 66.6°F19.2°C 65.4°F18.6°C 96% Calm Calm -- 29.90 in1012.5 mb 0.00 in0.0 mm 0.00 in0.0 mm 0.00 in0.0 mm
06:02 AM 66.5°F19.2°C 65.3°F18.5°C 96% Calm Calm -- 29.90 in1012.5 mb 0.00 in0.0 mm 0.00 in0.0 mm 0.00 in0.0 mm
06:07 AM 66.5°F19.2°C 65.3°F18.5°C 96% Calm Calm -- 29.90 in1012.5 mb 0.00 in0.0 mm 0.00 in0.0 mm 0.00 in0.0 mm
06:12 AM 66.5°F19.2°C 65.3°F18.5°C 96% Calm Calm -- 29.91 in1012.9 mb 0.00 in0.0 mm 0.00 in0.0 mm 0.00 in0.0 mm
06:17 AM 66.5°F19.2°C 65.3°F18.5°C 96% Calm Calm -- 29.91 in1012.9 mb 0.00 in0.0 mm 0.00 in0.0 mm 0.00 in0.0 mm
06:22 AM 66.5°F19.2°C 65.3°F18.5°C 96% Calm Calm -- 29.91 in1012.9 mb 0.00 in0.0 mm 0.00 in0.0 mm 0.00 in0.0 mm
06:27 AM 66.4°F19.1°C 65.2°F18.4°C 96% Calm Calm -- 29.91 in1012.9 mb 0.00 in0.0 mm 0.00 in0.0 mm 0.00 in0.0 mm
06:32 AM 66.4°F19.1°C 65.2°F18.4°C 96% Calm Calm -- 29.91 in1012.9 mb 0.00 in0.0 mm 0.00 in0.0 mm 0.00 in0.0 mm
06:37 AM 66.3°F19.1°C 65.1°F18.4°C 96% Calm Calm -- 29.91 in1012.9 mb 0.00 in0.0 mm 0.00 in0.0 mm 0.00 in0.0 mm
06:42 AM 66.3°F19.1°C 65.1°F18.4°C 96% Calm Calm -- 29.91 in1012.9 mb 0.00 in0.0 mm 0.00 in0.0 mm 0.00 in0.0 mm
06:47 AM 66.2°F19.0°C 65.0°F18.3°C 96% Calm Calm -- 29.91 in1012.9 mb 0.00 in0.0 mm 0.00 in0.0 mm 0.00 in0.0 mm
06:52 AM 66.3°F19.1°C 65.1°F18.4°C 96% Calm Calm -- 29.91 in1012.9 mb 0.00 in0.0 mm 0.00 in0.0 mm 0.00 in0.0 mm
06:57 AM 66.4°F19.1°C 65.2°F18.4°C 96% Calm Calm -- 29.91 in1012.9 mb 0.00 in0.0 mm 0.00 in0.0 mm 0.00 in0.0 mm
07:02 AM 66.5°F19.2°C 65.3°F18.5°C 96% Calm Calm -- 29.91 in1012.9 mb 0.00 in0.0 mm 0.00 in0.0 mm 0.00 in0.0 mm
07:07 AM 66.6°F19.2°C 65.4°F18.6°C 96% Calm Calm -- 29.91 in1012.9 mb 0.00 in0.0 mm 0.00 in0.0 mm 0.00 in0.0 mm
07:12 AM 66.8°F19.3°C 65.6°F18.7°C 96% Calm Calm -- 29.91 in1012.9 mb 0.00 in0.0 mm 0.00 in0.0 mm 0.00 in0.0 mm
07:17 AM 67.1°F19.5°C 65.9°F18.8°C 96% Calm Calm -- 29.92 in1013.2 mb 0.00 in0.0 mm 0.00 in0.0 mm 0.00 in0.0 mm
07:22 AM 67.3°F19.6°C 66.1°F18.9°C 96% Calm Calm -- 29.92 in1013.2 mb 0.00 in0.0 mm 0.00 in0.0 mm 0.00 in0.0 mm
07:27 AM 67.7°F19.8°C 66.2°F19.0°C 95% Calm Calm -- 29.92 in1013.2 mb 0.00 in0.0 mm 0.00 in0.0 mm 0.00 in0.0 mm
07:33 AM 68.0°F20.0°C 66.5°F19.2°C 95% Calm Calm -- 29.92 in1013.2 mb 0.00 in0.0 mm 0.00 in0.0 mm 0.00 in0.0 mm
07:38 AM 68.3°F20.2°C 66.5°F19.2°C 94% Calm Calm -- 29.92 in1013.2 mb 0.00 in0.0 mm 0.00 in0.0 mm 0.00 in0.0 mm
07:43 AM 68.7°F20.4°C 66.9°F19.4°C 94% Calm Calm -- 29.92 in1013.2 mb 0.00 in0.0 mm 0.00 in0.0 mm 0.00 in0.0 mm
07:48 AM 69.1°F20.6°C 67.0°F19.4°C 93% Calm Calm -- 29.91 in1012.9 mb 0.00 in0.0 mm 0.00 in0.0 mm 0.00 in0.0 mm
07:53 AM 69.4°F20.8°C 67.3°F19.6°C 93% Calm Calm -- 29.92 in1013.2 mb 0.00 in0.0 mm 0.00 in0.0 mm 0.00 in0.0 mm
07:58 AM 69.7°F20.9°C 67.6°F19.8°C 93% Calm Calm -- 29.91 in1012.9 mb 0.00 in0.0 mm 0.00 in0.0 mm 0.00 in0.0 mm
08:03 AM 70.1°F21.2°C 68.0°F20.0°C 93% Calm Calm -- 29.92 in1013.2 mb 0.00 in0.0 mm 0.00 in0.0 mm 0.00 in0.0 mm
08:08 AM 70.6°F21.4°C 68.4°F20.2°C 93% Calm Calm -- 29.92 in1013.2 mb 0.00 in0.0 mm 0.00 in0.0 mm 0.00 in0.0 mm
08:13 AM 71.3°F21.8°C 68.8°F20.4°C 92% 1.0 mph SSE1.6 kmh SSE 1.0 mph1.6 kmh 29.92 in1013.2 mb 0.00 in0.0 mm 0.00 in0.0 mm 0.00 in0.0 mm
08:18 AM 71.9°F22.2°C 69.4°F20.8°C 92% Calm Calm 1.0 mph1.6 kmh 29.92 in1013.2 mb 0.00 in0.0 mm 0.00 in0.0 mm 0.00 in0.0 mm
08:23 AM 72.3°F22.4°C 69.8°F21.0°C 92% Calm Calm 1.0 mph1.6 kmh 29.92 in1013.2 mb 0.00 in0.0 mm 0.00 in0.0 mm 0.00 in0.0 mm
08:28 AM 72.8°F22.7°C 70.0°F21.1°C 91% 1.1 mph SSE1.8 kmh SSE 2.0 mph3.2 kmh 29.92 in1013.2 mb 0.00 in0.0 mm 0.00 in0.0 mm 0.00 in0.0 mm
08:33 AM 73.1°F22.8°C 70.3°F21.3°C 91% Calm Calm 2.0 mph3.2 kmh 29.92 in1013.2 mb 0.00 in0.0 mm 0.00 in0.0 mm 0.00 in0.0 mm
08:38 AM 73.2°F22.9°C 70.1°F21.2°C 90% Calm Calm 2.0 mph3.2 kmh 29.93 in1013.5 mb 0.00 in0.0 mm 0.00 in0.0 mm 0.00 in0.0 mm
08:43 AM 73.5°F23.1°C 70.4°F21.3°C 90% Calm Calm 2.0 mph3.2 kmh 29.93 in1013.5 mb 0.00 in0.0 mm 0.00 in0.0 mm 0.00 in0.0 mm
08:48 AM 73.9°F23.3°C 70.4°F21.3°C 89% 1.1 mph SSE1.8 kmh SSE 2.0 mph3.2 kmh 29.92 in1013.2 mb 0.00 in0.0 mm 0.00 in0.0 mm 0.00 in0.0 mm
08:53 AM 74.2°F23.4°C 70.4°F21.3°C 88% 1.1 mph SSE1.8 kmh SSE 2.0 mph3.2 kmh 29.92 in1013.2 mb 0.00 in0.0 mm 0.00 in0.0 mm 0.00 in0.0 mm
08:58 AM 74.5°F23.6°C 70.1°F21.2°C 86% 1.0 mph SSE1.6 kmh SSE 2.0 mph3.2 kmh 29.92 in1013.2 mb 0.00 in0.0 mm 0.00 in0.0 mm 0.00 in0.0 mm
09:03 AM 74.9°F23.8°C 70.1°F21.2°C 85% 1.0 mph S1.6 kmh S 3.0 mph4.8 kmh 29.92 in1013.2 mb 0.00 in0.0 mm 0.00 in0.0 mm 0.00 in0.0 mm
09:08 AM 75.3°F24.1°C 70.2°F21.2°C 84% 1.7 mph SSE2.7 kmh SSE 4.0 mph6.4 kmh 29.92 in1013.2 mb 0.00 in0.0 mm 0.00 in0.0 mm 0.00 in0.0 mm
09:13 AM 75.9°F24.4°C 69.7°F20.9°C 81% 2.3 mph S3.7 kmh S 4.0 mph6.4 kmh 29.92 in1013.2 mb 0.00 in0.0 mm 0.00 in0.0 mm 0.00 in0.0 mm
09:18 AM 76.4°F24.7°C 70.2°F21.2°C 81% 1.2 mph SSW1.9 kmh SSW 4.0 mph6.4 kmh 29.92 in1013.2 mb 0.00 in0.0 mm 0.00 in0.0 mm 0.00 in0.0 mm
09:23 AM 76.8°F24.9°C 70.3°F21.3°C 80% 1.3 mph S2.1 kmh S 3.0 mph4.8 kmh 29.92 in1013.2 mb 0.00 in0.0 mm 0.00 in0.0 mm 0.00 in0.0 mm
09:28 AM 77.1°F25.1°C 70.2°F21.2°C 79% 1.0 mph SSW1.6 kmh SSW 3.0 mph4.8 kmh 29.92 in1013.2 mb 0.00 in0.0 mm 0.00 in0.0 mm 0.00 in0.0 mm
09:33 AM 77.2°F25.1°C 70.9°F21.6°C 81% 1.0 mph SSW1.6 kmh SSW 3.0 mph4.8 kmh 29.92 in1013.2 mb 0.00 in0.0 mm 0.00 in0.0 mm 0.00 in0.0 mm
09:38 AM 77.1°F25.1°C 70.6°F21.4°C 80% 1.8 mph S2.9 kmh S 4.0 mph6.4 kmh 29.91 in1012.9 mb 0.00 in0.0 mm 0.00 in0.0 mm 0.00 in0.0 mm
09:43 AM 77.6°F25.3°C 70.3°F21.3°C 78% 1.2 mph SW1.9 kmh SW 5.0 mph8.0 kmh 29.91 in1012.9 mb 0.00 in0.0 mm 0.00 in0.0 mm 0.00 in0.0 mm
09:48 AM 77.9°F25.5°C 70.3°F21.3°C 77% 1.4 mph SSE2.3 kmh SSE 5.0 mph8.0 kmh 29.91 in1012.9 mb 0.00 in0.0 mm 0.00 in0.0 mm 0.00 in0.0 mm
09:53 AM 78.5°F25.8°C 70.8°F21.6°C 77% 1.9 mph SSE3.1 kmh SSE 5.0 mph8.0 kmh 29.91 in1012.9 mb 0.00 in0.0 mm 0.00 in0.0 mm 0.00 in0.0 mm
09:58 AM 79.1°F26.2°C 71.3°F21.8°C 77% 1.0 mph SW1.6 kmh SW 5.0 mph8.0 kmh 29.90 in1012.5 mb 0.00 in0.0 mm 0.00 in0.0 mm 0.00 in0.0 mm
10:03 AM 79.6°F26.4°C 71.2°F21.8°C 75% 1.0 mph S1.6 kmh S 5.0 mph8.0 kmh 29.90 in1012.5 mb 0.00 in0.0 mm 0.00 in0.0 mm 0.00 in0.0 mm
10:08 AM 79.9°F26.6°C 71.8°F22.1°C 76% 1.4 mph S2.3 kmh S 4.0 mph6.4 kmh 29.90 in1012.5 mb 0.00 in0.0 mm 0.00 in0.0 mm 0.00 in0.0 mm
10:13 AM 80.1°F26.7°C 71.6°F22.0°C 75% 1.5 mph S2.4 kmh S 4.0 mph6.4 kmh 29.90 in1012.5 mb 0.00 in0.0 mm 0.00 in0.0 mm 0.00 in0.0 mm
10:18 AM 80.7°F27.1°C 72.0°F22.2°C 75% 1.8 mph SSW2.9 kmh SSW 4.0 mph6.4 kmh 29.90 in1012.5 mb 0.00 in0.0 mm 0.00 in0.0 mm 0.00 in0.0 mm
10:23 AM 81.0°F27.2°C 72.5°F22.5°C 75% 1.4 mph S2.3 kmh S 4.0 mph6.4 kmh 29.89 in1012.2 mb 0.00 in0.0 mm 0.00 in0.0 mm 0.00 in0.0 mm
10:28 AM 81.3°F27.4°C 72.4°F22.4°C 74% 1.5 mph S2.4 kmh S 4.0 mph6.4 kmh 29.89 in1012.2 mb 0.00 in0.0 mm 0.00 in0.0 mm 0.00 in0.0 mm
10:33 AM 81.7°F27.6°C 72.4°F22.4°C 73% 2.0 mph SSW3.2 kmh SSW 5.0 mph8.0 kmh 29.89 in1012.2 mb 0.00 in0.0 mm 0.00 in0.0 mm 0.00 in0.0 mm
10:38 AM 82.2°F27.9°C 72.9°F22.7°C 73% 1.5 mph S2.4 kmh S 5.0 mph8.0 kmh 29.89 in1012.2 mb 0.00 in0.0 mm 0.00 in0.0 mm 0.00 in0.0 mm
10:43 AM 82.8°F28.2°C 72.8°F22.7°C 72% 1.4 mph S2.3 kmh S 6.0 mph9.7 kmh 29.89 in1012.2 mb 0.00 in0.0 mm 0.00 in0.0 mm 0.00 in0.0 mm
10:48 AM 83.1°F28.4°C 73.0°F22.8°C 71% 3.2 mph S5.1 kmh S 7.0 mph11.3 kmh 29.89 in1012.2 mb 0.00 in0.0 mm 0.00 in0.0 mm 0.00 in0.0 mm
10:53 AM 83.8°F28.8°C 73.6°F23.1°C 71% 1.9 mph WSW3.1 kmh WSW 7.0 mph11.3 kmh 29.89 in1012.2 mb 0.00 in0.0 mm 0.00 in0.0 mm 0.00 in0.0 mm
10:58 AM 84.6°F29.2°C 73.6°F23.1°C 69% 1.4 mph SSW2.3 kmh SSW 7.0 mph11.3 kmh 29.89 in1012.2 mb 0.00 in0.0 mm 0.00 in0.0 mm 0.00 in0.0 mm
11:03 AM 85.0°F29.4°C 73.7°F23.2°C 69% 2.2 mph S3.5 kmh S 7.0 mph11.3 kmh 29.89 in1012.2 mb 0.00 in0.0 mm 0.00 in0.0 mm 0.00 in0.0 mm
11:08 AM 84.8°F29.3°C 73.9°F23.3°C 70% 2.3 mph SSW3.7 kmh SSW 7.0 mph11.3 kmh 29.89 in1012.2 mb 0.00 in0.0 mm 0.00 in0.0 mm 0.00 in0.0 mm
11:13 AM 85.2°F29.6°C 74.1°F23.4°C 69% 3.2 mph S5.1 kmh S 7.0 mph11.3 kmh 29.89 in1012.2 mb 0.00 in0.0 mm 0.00 in0.0 mm 0.00 in0.0 mm
11:18 AM 85.6°F29.8°C 74.5°F23.6°C 69% 2.4 mph SSW3.9 kmh SSW 7.0 mph11.3 kmh 29.89 in1012.2 mb 0.00 in0.0 mm 0.00 in0.0 mm 0.00 in0.0 mm
11:23 AM 85.7°F29.8°C 74.8°F23.8°C 70% 1.7 mph S2.7 kmh S 7.0 mph11.3 kmh 29.89 in1012.2 mb 0.00 in0.0 mm 0.00 in0.0 mm 0.00 in0.0 mm
11:28 AM 86.0°F30.0°C 73.8°F23.2°C 67% 2.6 mph S4.2 kmh S 7.0 mph11.3 kmh 29.89 in1012.2 mb 0.00 in0.0 mm 0.00 in0.0 mm 0.00 in0.0 mm
11:33 AM 85.6°F29.8°C 74.5°F23.6°C 69% 1.7 mph SE2.7 kmh SE 7.0 mph11.3 kmh 29.89 in1012.2 mb 0.00 in0.0 mm 0.00 in0.0 mm 0.00 in0.0 mm
11:38 AM 85.5°F29.7°C 74.8°F23.8°C 70% 1.9 mph S3.1 kmh S 7.0 mph11.3 kmh 29.89 in1012.2 mb 0.00 in0.0 mm 0.00 in0.0 mm 0.00 in0.0 mm
11:43 AM 86.0°F30.0°C 74.5°F23.6°C 68% 1.9 mph SW3.1 kmh SW 7.0 mph11.3 kmh 29.89 in1012.2 mb 0.00 in0.0 mm 0.00 in0.0 mm 0.00 in0.0 mm
11:48 AM 85.6°F29.8°C 74.7°F23.7°C 70% 2.8 mph S4.5 kmh S 7.0 mph11.3 kmh 29.89 in1012.2 mb 0.00 in0.0 mm 0.00 in0.0 mm 0.00 in0.0 mm
11:53 AM 86.0°F30.0°C 74.5°F23.6°C 68% 2.7 mph S4.3 kmh S 6.0 mph9.7 kmh 29.89 in1012.2 mb 0.00 in0.0 mm 0.00 in0.0 mm 0.00 in0.0 mm
11:58 AM 86.1°F30.1°C 75.4°F24.1°C 70% 2.2 mph S3.5 kmh S 7.0 mph11.3 kmh 29.88 in1011.9 mb 0.00 in0.0 mm 0.00 in0.0 mm 0.00 in0.0 mm
12:03 PM 87.4°F30.8°C 75.4°F24.1°C 67% 1.8 mph WSW2.9 kmh WSW 7.0 mph11.3 kmh 29.88 in1011.9 mb 0.00 in0.0 mm 0.00 in0.0 mm 0.00 in0.0 mm
12:08 PM 87.1°F30.6°C 74.8°F23.8°C 67% 2.9 mph S4.7 kmh S 7.0 mph11.3 kmh 29.88 in1011.9 mb 0.00 in0.0 mm 0.00 in0.0 mm 0.00 in0.0 mm
12:13 PM 87.8°F31.0°C 76.2°F24.6°C 68% 1.7 mph SSW2.7 kmh SSW 6.0 mph9.7 kmh 29.88 in1011.9 mb 0.00 in0.0 mm 0.00 in0.0 mm 0.00 in0.0 mm
12:18 PM 87.4°F30.8°C 74.9°F23.8°C 66% 2.2 mph S3.5 kmh S 6.0 mph9.7 kmh 29.88 in1011.9 mb 0.00 in0.0 mm 0.00 in0.0 mm 0.00 in0.0 mm
12:23 PM 87.0°F30.6°C 75.0°F23.9°C 67% 2.7 mph SW4.3 kmh SW 8.0 mph12.9 kmh 29.88 in1011.9 mb 0.00 in0.0 mm 0.00 in0.0 mm 0.00 in0.0 mm
12:28 PM 86.9°F30.5°C 75.3°F24.1°C 68% 1.8 mph S2.9 kmh S 8.0 mph12.9 kmh 29.88 in1011.9 mb 0.00 in0.0 mm 0.00 in0.0 mm 0.00 in0.0 mm
12:33 PM 87.2°F30.7°C 75.6°F24.2°C 68% 1.7 mph WSW2.7 kmh WSW 7.0 mph11.3 kmh 29.88 in1011.9 mb 0.00 in0.0 mm 0.00 in0.0 mm 0.00 in0.0 mm
12:38 PM 87.3°F30.7°C 75.3°F24.1°C 67% 2.1 mph S3.4 kmh S 7.0 mph11.3 kmh 29.88 in1011.9 mb 0.00 in0.0 mm 0.00 in0.0 mm 0.00 in0.0 mm
12:43 PM 87.1°F30.6°C 76.0°F24.4°C 69% 1.5 mph SSW2.4 kmh SSW 5.0 mph8.0 kmh 29.87 in1011.5 mb 0.00 in0.0 mm 0.00 in0.0 mm 0.00 in0.0 mm
12:48 PM 86.5°F30.3°C 74.7°F23.7°C 68% 1.9 mph S3.1 kmh S 5.0 mph8.0 kmh 29.88 in1011.9 mb 0.00 in0.0 mm 0.00 in0.0 mm 0.00 in0.0 mm
12:53 PM 87.2°F30.7°C 75.8°F24.3°C 69% 1.5 mph S2.4 kmh S 5.0 mph8.0 kmh 29.87 in1011.5 mb 0.00 in0.0 mm 0.00 in0.0 mm 0.00 in0.0 mm
12:58 PM 88.5°F31.4°C 76.4°F24.7°C 67% 1.6 mph S2.6 kmh S 5.0 mph8.0 kmh 29.87 in1011.5 mb 0.00 in0.0 mm 0.00 in0.0 mm 0.00 in0.0 mm
01:03 PM 88.4°F31.3°C 75.1°F23.9°C 65% 1.7 mph S2.7 kmh S 6.0 mph9.7 kmh 29.87 in1011.5 mb 0.00 in0.0 mm 0.00 in0.0 mm 0.00 in0.0 mm
01:08 PM 87.4°F30.8°C 75.4°F24.1°C 67% 2.2 mph S3.5 kmh S 6.0 mph9.7 kmh 29.87 in1011.5 mb 0.00 in0.0 mm 0.00 in0.0 mm 0.00 in0.0 mm
01:13 PM 87.2°F30.7°C 75.2°F24.0°C 67% 1.5 mph SW2.4 kmh SW 6.0 mph9.7 kmh 29.87 in1011.5 mb 0.00 in0.0 mm 0.00 in0.0 mm 0.00 in0.0 mm
01:18 PM 87.1°F30.6°C 75.3°F24.1°C 68% 2.8 mph S4.5 kmh S 7.0 mph11.3 kmh 29.86 in1011.2 mb 0.00 in0.0 mm 0.00 in0.0 mm 0.00 in0.0 mm
01:23 PM 87.7°F30.9°C 76.1°F24.5°C 68% 1.8 mph S2.9 kmh S 7.0 mph11.3 kmh 29.86 in1011.2 mb 0.00 in0.0 mm 0.00 in0.0 mm 0.00 in0.0 mm
01:28 PM 87.4°F30.8°C 75.8°F24.3°C 68% 3.1 mph S5.0 kmh S 7.0 mph11.3 kmh 29.86 in1011.2 mb 0.00 in0.0 mm 0.00 in0.0 mm 0.00 in0.0 mm
01:33 PM 87.4°F30.8°C 76.2°F24.6°C 69% 2.8 mph S4.5 kmh S 7.0 mph11.3 kmh 29.86 in1011.2 mb 0.00 in0.0 mm 0.00 in0.0 mm 0.00 in0.0 mm
01:38 PM 88.3°F31.3°C 75.8°F24.3°C 66% 2.1 mph SW3.4 kmh SW 7.0 mph11.3 kmh 29.86 in1011.2 mb 0.00 in0.0 mm 0.00 in0.0 mm 0.00 in0.0 mm
01:44 PM 88.6°F31.4°C 76.1°F24.5°C 66% 1.6 mph S2.6 kmh S 6.0 mph9.7 kmh 29.86 in1011.2 mb 0.00 in0.0 mm 0.00 in0.0 mm 0.00 in0.0 mm
01:49 PM 88.6°F31.4°C 76.1°F24.5°C 66% 2.0 mph S3.2 kmh S 6.0 mph9.7 kmh 29.86 in1011.2 mb 0.00 in0.0 mm 0.00 in0.0 mm 0.00 in0.0 mm
01:54 PM 88.6°F31.4°C 74.2°F23.4°C 62% 3.3 mph S5.3 kmh S 6.0 mph9.7 kmh 29.85 in1010.8 mb 0.00 in0.0 mm 0.00 in0.0 mm 0.00 in0.0 mm
01:59 PM 87.5°F30.8°C 75.0°F23.9°C 66% 2.3 mph SSW3.7 kmh SSW 6.0 mph9.7 kmh 29.85 in1010.8 mb 0.00 in0.0 mm 0.00 in0.0 mm 0.00 in0.0 mm
02:04 PM 87.5°F30.8°C 75.0°F23.9°C 66% 1.0 mph S1.6 kmh S 6.0 mph9.7 kmh 29.85 in1010.8 mb 0.00 in0.0 mm 0.00 in0.0 mm 0.00 in0.0 mm
02:09 PM 88.6°F31.4°C 75.6°F24.2°C 65% 2.0 mph S3.2 kmh S 6.0 mph9.7 kmh 29.84 in1010.5 mb 0.00 in0.0 mm 0.00 in0.0 mm 0.00 in0.0 mm
02:14 PM 89.2°F31.8°C 76.2°F24.6°C 65% 2.7 mph S4.3 kmh S 8.0 mph12.9 kmh 29.84 in1010.5 mb 0.00 in0.0 mm 0.00 in0.0 mm 0.00 in0.0 mm
02:19 PM 90.3°F32.4°C 75.8°F24.3°C 62% 2.0 mph S3.2 kmh S 8.0 mph12.9 kmh 29.84 in1010.5 mb 0.00 in0.0 mm 0.00 in0.0 mm 0.00 in0.0 mm
02:24 PM 90.0°F32.2°C 77.0°F25.0°C 65% 1.9 mph S3.1 kmh S 8.0 mph12.9 kmh 29.83 in1010.2 mb 0.00 in0.0 mm 0.00 in0.0 mm 0.00 in0.0 mm
02:29 PM 89.2°F31.8°C 76.2°F24.6°C 65% 2.0 mph S3.2 kmh S 15.0 mph24.1 kmh 29.83 in1010.2 mb 0.00 in0.0 mm 0.00 in0.0 mm 0.00 in0.0 mm
02:34 PM 89.3°F31.8°C 75.0°F23.9°C 63% 1.7 mph SW2.7 kmh SW 15.0 mph24.1 kmh 29.83 in1010.2 mb 0.00 in0.0 mm 0.00 in0.0 mm 0.00 in0.0 mm
02:39 PM 89.4°F31.9°C 75.0°F23.9°C 62% 1.9 mph SSE3.1 kmh SSE 14.0 mph22.5 kmh 29.83 in1010.2 mb 0.00 in0.0 mm 0.00 in0.0 mm 0.00 in0.0 mm
02:44 PM 88.3°F31.3°C 74.4°F23.6°C 63% 2.6 mph S4.2 kmh S 14.0 mph22.5 kmh 29.82 in1009.8 mb 0.00 in0.0 mm 0.00 in0.0 mm 0.00 in0.0 mm
02:49 PM 87.5°F30.8°C 74.1°F23.4°C 64% 1.9 mph S3.1 kmh S 7.0 mph11.3 kmh 29.82 in1009.8 mb 0.00 in0.0 mm 0.00 in0.0 mm 0.00 in0.0 mm
02:54 PM 87.1°F30.6°C 74.2°F23.4°C 65% 1.1 mph SSE1.8 kmh SSE 10.0 mph16.1 kmh 29.82 in1009.8 mb 0.00 in0.0 mm 0.00 in0.0 mm 0.00 in0.0 mm
02:59 PM 86.8°F30.4°C 73.9°F23.3°C 65% 2.8 mph S4.5 kmh S 10.0 mph16.1 kmh 29.82 in1009.8 mb 0.00 in0.0 mm 0.00 in0.0 mm 0.00 in0.0 mm
03:04 PM 86.5°F30.3°C 74.1°F23.4°C 66% 2.3 mph SSW3.7 kmh SSW 14.0 mph22.5 kmh 29.83 in1010.2 mb 0.00 in0.0 mm 0.00 in0.0 mm 0.00 in0.0 mm
03:09 PM 86.1°F30.1°C 74.3°F23.5°C 68% 1.6 mph SW2.6 kmh SW 14.0 mph22.5 kmh 29.83 in1010.2 mb 0.00 in0.0 mm 0.00 in0.0 mm 0.00 in0.0 mm
03:14 PM 85.8°F29.9°C 74.4°F23.6°C 69% 2.4 mph SW3.9 kmh SW 14.0 mph22.5 kmh 29.84 in1010.5 mb 0.00 in0.0 mm 0.00 in0.0 mm 0.00 in0.0 mm
03:19 PM 83.7°F28.7°C 75.1°F23.9°C 75% 4.4 mph SW7.1 kmh SW 12.0 mph19.3 kmh 29.86 in1011.2 mb 0.00 in0.0 mm 0.00 in0.0 mm 0.00 in0.0 mm
03:24 PM 79.1°F26.2°C 72.9°F22.7°C 81% 3.6 mph WSW5.8 kmh WSW 12.0 mph19.3 kmh 29.86 in1011.2 mb 0.06 in1.5 mm 0.72 in18.3 mm 0.06 in1.5 mm
03:29 PM 75.7°F24.3°C 71.9°F22.2°C 88% 1.9 mph SW3.1 kmh SW 12.0 mph19.3 kmh 29.86 in1011.2 mb 0.24 in6.1 mm 2.16 in54.9 mm 0.24 in6.1 mm
03:34 PM 73.9°F23.3°C 71.1°F21.7°C 91% 3.2 mph S5.1 kmh S 12.0 mph19.3 kmh 29.85 in1010.8 mb 0.45 in11.4 mm 2.52 in64.0 mm 0.45 in11.4 mm
03:39 PM 73.2°F22.9°C 71.1°F21.7°C 93% 1.8 mph S2.9 kmh S 10.0 mph16.1 kmh 29.85 in1010.8 mb 0.51 in13.0 mm 0.72 in18.3 mm 0.51 in13.0 mm
03:44 PM 73.2°F22.9°C 71.7°F22.1°C 95% 1.4 mph S2.3 kmh S 10.0 mph16.1 kmh 29.85 in1010.8 mb 0.52 in13.2 mm 0.12 in3.0 mm 0.52 in13.2 mm
03:49 PM 73.8°F23.2°C 72.6°F22.6°C 96% 1.0 mph SSW1.6 kmh SSW 10.0 mph16.1 kmh 29.85 in1010.8 mb 0.52 in13.2 mm 0.00 in0.0 mm 0.52 in13.2 mm
03:54 PM 74.8°F23.8°C 73.9°F23.3°C 97% 1.8 mph SW2.9 kmh SW 10.0 mph16.1 kmh 29.85 in1010.8 mb 0.52 in13.2 mm 0.00 in0.0 mm 0.52 in13.2 mm
03:59 PM 75.6°F24.2°C 74.7°F23.7°C 97% 1.7 mph SSW2.7 kmh SSW 5.0 mph8.0 kmh 29.85 in1010.8 mb 0.52 in13.2 mm 0.00 in0.0 mm 0.52 in13.2 mm
04:04 PM 76.3°F24.6°C 75.1°F23.9°C 96% 1.7 mph SSW2.7 kmh SSW 5.0 mph8.0 kmh 29.85 in1010.8 mb 0.52 in13.2 mm 0.00 in0.0 mm 0.52 in13.2 mm
04:09 PM 76.4°F24.7°C 74.8°F23.8°C 95% 2.5 mph SW4.0 kmh SW 6.0 mph9.7 kmh 29.85 in1010.8 mb 0.52 in13.2 mm 0.00 in0.0 mm 0.52 in13.2 mm
04:14 PM 76.6°F24.8°C 75.0°F23.9°C 95% 1.0 mph SW1.6 kmh SW 6.0 mph9.7 kmh 29.86 in1011.2 mb 0.52 in13.2 mm 0.00 in0.0 mm 0.52 in13.2 mm
04:19 PM 76.4°F24.7°C 74.8°F23.8°C 95% 1.3 mph S2.1 kmh S 6.0 mph9.7 kmh 29.86 in1011.2 mb 0.55 in14.0 mm 0.36 in9.1 mm 0.55 in14.0 mm
04:24 PM 76.2°F24.6°C 74.7°F23.7°C 95% 1.7 mph W2.7 kmh W 6.0 mph9.7 kmh 29.86 in1011.2 mb 0.50 in12.7 mm 0.00 in0.0 mm 0.56 in14.2 mm
04:29 PM 76.2°F24.6°C 74.7°F23.7°C 95% 1.0 mph SW1.6 kmh SW 4.0 mph6.4 kmh 29.85 in1010.8 mb 0.32 in8.1 mm 0.00 in0.0 mm 0.56 in14.2 mm
04:34 PM 76.2°F24.6°C 74.9°F23.8°C 96% 1.5 mph SSW2.4 kmh SSW 4.0 mph6.4 kmh 29.85 in1010.8 mb 0.11 in2.8 mm 0.00 in0.0 mm 0.56 in14.2 mm
04:39 PM 76.5°F24.7°C 75.3°F24.1°C 96% 1.3 mph S2.1 kmh S 4.0 mph6.4 kmh 29.84 in1010.5 mb 0.05 in1.3 mm 0.00 in0.0 mm 0.56 in14.2 mm
04:44 PM 77.4°F25.2°C 76.1°F24.5°C 96% 1.9 mph SW3.1 kmh SW 6.0 mph9.7 kmh 29.84 in1010.5 mb 0.04 in1.0 mm 0.00 in0.0 mm 0.56 in14.2 mm
04:49 PM 78.5°F25.8°C 77.2°F25.1°C 96% 1.2 mph SSE1.9 kmh SSE 6.0 mph9.7 kmh 29.84 in1010.5 mb 0.04 in1.0 mm 0.00 in0.0 mm 0.56 in14.2 mm
04:54 PM 78.7°F25.9°C 76.5°F24.7°C 93% 2.1 mph S3.4 kmh S 6.0 mph9.7 kmh 29.84 in1010.5 mb 0.04 in1.0 mm 0.00 in0.0 mm 0.56 in14.2 mm
04:59 PM 78.8°F26.0°C 76.9°F24.9°C 94% 3.0 mph S4.8 kmh S 8.0 mph12.9 kmh 29.84 in1010.5 mb 0.04 in1.0 mm 0.00 in0.0 mm 0.56 in14.2 mm
05:04 PM 78.6°F25.9°C 75.4°F24.1°C 90% 2.8 mph S4.5 kmh S 9.0 mph14.5 kmh 29.84 in1010.5 mb 0.04 in1.0 mm 0.00 in0.0 mm 0.56 in14.2 mm
05:09 PM 79.1°F26.2°C 76.6°F24.8°C 92% 1.9 mph WSW3.1 kmh WSW 9.0 mph14.5 kmh 29.84 in1010.5 mb 0.04 in1.0 mm 0.00 in0.0 mm 0.56 in14.2 mm
05:14 PM 79.2°F26.2°C 76.3°F24.6°C 91% 1.5 mph S2.4 kmh S 9.0 mph14.5 kmh 29.84 in1010.5 mb 0.04 in1.0 mm 0.00 in0.0 mm 0.56 in14.2 mm
05:19 PM 78.8°F26.0°C 75.6°F24.2°C 90% 2.2 mph S3.5 kmh S 9.0 mph14.5 kmh 29.84 in1010.5 mb 0.01 in0.3 mm 0.00 in0.0 mm 0.56 in14.2 mm
05:24 PM 78.2°F25.7°C 75.3°F24.1°C 91% 1.4 mph S2.3 kmh S 8.0 mph12.9 kmh 29.84 in1010.5 mb 0.00 in0.0 mm 0.00 in0.0 mm 0.56 in14.2 mm
05:29 PM 77.8°F25.4°C 75.3°F24.1°C 92% 1.2 mph S1.9 kmh S 8.0 mph12.9 kmh 29.84 in1010.5 mb 0.00 in0.0 mm 0.00 in0.0 mm 0.56 in14.2 mm
05:34 PM 77.6°F25.3°C 75.1°F23.9°C 92% 1.6 mph SW2.6 kmh SW 8.0 mph12.9 kmh 29.84 in1010.5 mb 0.00 in0.0 mm 0.00 in0.0 mm 0.56 in14.2 mm
05:39 PM 77.4°F25.2°C 75.2°F24.0°C 93% 1.3 mph SW2.1 kmh SW 4.0 mph6.4 kmh 29.84 in1010.5 mb 0.00 in0.0 mm 0.00 in0.0 mm 0.56 in14.2 mm
05:44 PM 77.7°F25.4°C 75.5°F24.2°C 93% 2.0 mph SSW3.2 kmh SSW 5.0 mph8.0 kmh 29.84 in1010.5 mb 0.00 in0.0 mm 0.00 in0.0 mm 0.56 in14.2 mm
05:49 PM 77.9°F25.5°C 75.4°F24.1°C 92% 2.6 mph SW4.2 kmh SW 5.0 mph8.0 kmh 29.84 in1010.5 mb 0.00 in0.0 mm 0.00 in0.0 mm 0.56 in14.2 mm
05:54 PM 78.9°F26.1°C 76.7°F24.8°C 93% 1.8 mph SW2.9 kmh SW 5.0 mph8.0 kmh 29.84 in1010.5 mb 0.00 in0.0 mm 0.00 in0.0 mm 0.56 in14.2 mm
05:59 PM 79.6°F26.4°C 76.1°F24.5°C 89% 2.5 mph S4.0 kmh S 6.0 mph9.7 kmh 29.84 in1010.5 mb 0.00 in0.0 mm 0.00 in0.0 mm 0.56 in14.2 mm
06:04 PM 79.6°F26.4°C 76.4°F24.7°C 90% 1.1 mph SW1.8 kmh SW 6.0 mph9.7 kmh 29.84 in1010.5 mb 0.00 in0.0 mm 0.00 in0.0 mm 0.56 in14.2 mm
06:09 PM 79.8°F26.6°C 75.9°F24.4°C 88% 2.4 mph S3.9 kmh S 6.0 mph9.7 kmh 29.84 in1010.5 mb 0.00 in0.0 mm 0.00 in0.0 mm 0.56 in14.2 mm
06:14 PM 80.0°F26.7°C 76.1°F24.5°C 88% 1.4 mph SSW2.3 kmh SSW 6.0 mph9.7 kmh 29.84 in1010.5 mb 0.00 in0.0 mm 0.00 in0.0 mm 0.56 in14.2 mm
06:19 PM 80.2°F26.8°C 76.0°F24.4°C 87% 1.7 mph SSW2.7 kmh SSW 5.0 mph8.0 kmh 29.84 in1010.5 mb 0.00 in0.0 mm 0.00 in0.0 mm 0.56 in14.2 mm
06:24 PM 80.4°F26.9°C 76.2°F24.6°C 87% 2.9 mph SW4.7 kmh SW 9.0 mph14.5 kmh 29.84 in1010.5 mb 0.00 in0.0 mm 0.00 in0.0 mm 0.56 in14.2 mm
06:29 PM 80.3°F26.8°C 75.8°F24.3°C 86% 2.3 mph WSW3.7 kmh WSW 9.0 mph14.5 kmh 29.84 in1010.5 mb 0.00 in0.0 mm 0.00 in0.0 mm 0.56 in14.2 mm
06:34 PM 80.3°F26.8°C 75.7°F24.3°C 86% 1.4 mph S2.3 kmh S 9.0 mph14.5 kmh 29.83 in1010.2 mb 0.00 in0.0 mm 0.00 in0.0 mm 0.56 in14.2 mm
06:39 PM 80.2°F26.8°C 75.6°F24.2°C 86% 2.4 mph SSW3.9 kmh SSW 9.0 mph14.5 kmh 29.83 in1010.2 mb 0.00 in0.0 mm 0.00 in0.0 mm 0.56 in14.2 mm
06:44 PM 80.1°F26.7°C 75.9°F24.4°C 87% 1.5 mph SW2.4 kmh SW 7.0 mph11.3 kmh 29.83 in1010.2 mb 0.00 in0.0 mm 0.00 in0.0 mm 0.56 in14.2 mm
06:49 PM 80.1°F26.7°C 76.2°F24.6°C 88% 1.5 mph SW2.4 kmh SW 6.0 mph9.7 kmh 29.83 in1010.2 mb 0.00 in0.0 mm 0.00 in0.0 mm 0.56 in14.2 mm
06:54 PM 80.1°F26.7°C 75.6°F24.2°C 86% 1.9 mph S3.1 kmh S 6.0 mph9.7 kmh 29.83 in1010.2 mb 0.00 in0.0 mm 0.00 in0.0 mm 0.56 in14.2 mm
06:59 PM 80.2°F26.8°C 75.7°F24.3°C 86% 1.4 mph S2.3 kmh S 5.0 mph8.0 kmh 29.83 in1010.2 mb 0.00 in0.0 mm 0.00 in0.0 mm 0.56 in14.2 mm
07:04 PM 80.2°F26.8°C 76.0°F24.4°C 87% 1.4 mph WSW2.3 kmh WSW 6.0 mph9.7 kmh 29.83 in1010.2 mb 0.00 in0.0 mm 0.00 in0.0 mm 0.56 in14.2 mm
07:09 PM 80.2°F26.8°C 75.7°F24.3°C 86% 1.4 mph SW2.3 kmh SW 7.0 mph11.3 kmh 29.83 in1010.2 mb 0.00 in0.0 mm 0.00 in0.0 mm 0.56 in14.2 mm
07:14 PM 80.0°F26.7°C 75.8°F24.3°C 87% 1.3 mph SSW2.1 kmh SSW 7.0 mph11.3 kmh 29.84 in1010.5 mb 0.00 in0.0 mm 0.00 in0.0 mm 0.56 in14.2 mm
07:19 PM 79.6°F26.4°C 75.4°F24.1°C 87% 2.0 mph SSW3.2 kmh SSW 7.0 mph11.3 kmh 29.83 in1010.2 mb 0.00 in0.0 mm 0.00 in0.0 mm 0.56 in14.2 mm
07:24 PM 79.2°F26.2°C 75.4°F24.1°C 88% 1.2 mph SSW1.9 kmh SSW 7.0 mph11.3 kmh 29.84 in1010.5 mb 0.00 in0.0 mm 0.00 in0.0 mm 0.56 in14.2 mm
07:29 PM 79.0°F26.1°C 75.5°F24.2°C 89% 1.6 mph SSW2.6 kmh SSW 5.0 mph8.0 kmh 29.83 in1010.2 mb 0.00 in0.0 mm 0.00 in0.0 mm 0.56 in14.2 mm
07:35 PM 78.9°F26.1°C 75.4°F24.1°C 89% 1.2 mph WSW1.9 kmh WSW 4.0 mph6.4 kmh 29.84 in1010.5 mb 0.00 in0.0 mm 0.00 in0.0 mm 0.56 in14.2 mm
07:39 PM 79.1°F26.2°C 75.9°F24.4°C 90% 1.8 mph SSW2.9 kmh SSW 5.0 mph8.0 kmh 29.84 in1010.5 mb 0.00 in0.0 mm 0.00 in0.0 mm 0.56 in14.2 mm
07:44 PM 79.4°F26.3°C 75.9°F24.4°C 89% 1.0 mph SSW1.6 kmh SSW 5.0 mph8.0 kmh 29.84 in1010.5 mb 0.00 in0.0 mm 0.00 in0.0 mm 0.56 in14.2 mm
07:50 PM 79.6°F26.4°C 75.7°F24.3°C 88% 1.0 mph S1.6 kmh S 5.0 mph8.0 kmh 29.84 in1010.5 mb 0.00 in0.0 mm 0.00 in0.0 mm 0.56 in14.2 mm
07:55 PM 79.4°F26.3°C 75.9°F24.4°C 89% 1.3 mph SSW2.1 kmh SSW 5.0 mph8.0 kmh 29.84 in1010.5 mb 0.00 in0.0 mm 0.00 in0.0 mm 0.56 in14.2 mm
08:00 PM 79.3°F26.3°C 75.8°F24.3°C 89% 1.5 mph SSW2.4 kmh SSW 4.0 mph6.4 kmh 29.84 in1010.5 mb 0.00 in0.0 mm 0.00 in0.0 mm 0.56 in14.2 mm
08:05 PM 79.3°F26.3°C 75.8°F24.3°C 89% 1.5 mph W2.4 kmh W 4.0 mph6.4 kmh 29.84 in1010.5 mb 0.00 in0.0 mm 0.00 in0.0 mm 0.56 in14.2 mm
08:10 PM 79.3°F26.3°C 76.1°F24.5°C 90% 1.5 mph S2.4 kmh S 3.0 mph4.8 kmh 29.84 in1010.5 mb 0.00 in0.0 mm 0.00 in0.0 mm 0.56 in14.2 mm
08:15 PM 79.1°F26.2°C 75.9°F24.4°C 90% 1.0 mph S1.6 kmh S 4.0 mph6.4 kmh 29.84 in1010.5 mb 0.00 in0.0 mm 0.00 in0.0 mm 0.56 in14.2 mm
08:20 PM 78.9°F26.1°C 76.0°F24.4°C 91% 1.4 mph S2.3 kmh S 4.0 mph6.4 kmh 29.84 in1010.5 mb 0.00 in0.0 mm 0.00 in0.0 mm 0.56 in14.2 mm
08:25 PM 78.7°F25.9°C 75.8°F24.3°C 91% 1.3 mph SW2.1 kmh SW 4.0 mph6.4 kmh 29.84 in1010.5 mb 0.00 in0.0 mm 0.00 in0.0 mm 0.56 in14.2 mm
08:30 PM 78.6°F25.9°C 75.7°F24.3°C 91% 1.0 mph SSW1.6 kmh SSW 4.0 mph6.4 kmh 29.85 in1010.8 mb 0.00 in0.0 mm 0.00 in0.0 mm 0.56 in14.2 mm
08:35 PM 78.4°F25.8°C 75.5°F24.2°C 91% 1.4 mph S2.3 kmh S 4.0 mph6.4 kmh 29.85 in1010.8 mb 0.00 in0.0 mm 0.00 in0.0 mm 0.56 in14.2 mm
08:40 PM 78.4°F25.8°C 75.2°F24.0°C 90% 1.0 mph NW1.6 kmh NW 3.0 mph4.8 kmh 29.85 in1010.8 mb 0.00 in0.0 mm 0.00 in0.0 mm 0.56 in14.2 mm
08:45 PM 78.2°F25.7°C 74.7°F23.7°C 89% 1.6 mph SE2.6 kmh SE 5.0 mph8.0 kmh 29.85 in1010.8 mb 0.00 in0.0 mm 0.00 in0.0 mm 0.56 in14.2 mm
08:50 PM 77.9°F25.5°C 71.7°F22.1°C 81% 2.2 mph SW3.5 kmh SW 9.0 mph14.5 kmh 29.85 in1010.8 mb 0.00 in0.0 mm 0.00 in0.0 mm 0.56 in14.2 mm
08:55 PM 77.4°F25.2°C 68.1°F20.1°C 73% 1.4 mph SW2.3 kmh SW 9.0 mph14.5 kmh 29.85 in1010.8 mb 0.00 in0.0 mm 0.00 in0.0 mm 0.56 in14.2 mm
09:00 PM 77.2°F25.1°C 66.2°F19.0°C 69% 2.0 mph W3.2 kmh W 8.0 mph12.9 kmh 29.85 in1010.8 mb 0.00 in0.0 mm 0.00 in0.0 mm 0.56 in14.2 mm
09:05 PM 76.9°F24.9°C 64.0°F17.8°C 64% 2.0 mph WSW3.2 kmh WSW 8.0 mph12.9 kmh 29.85 in1010.8 mb 0.00 in0.0 mm 0.00 in0.0 mm 0.56 in14.2 mm
09:10 PM 76.4°F24.7°C 63.5°F17.5°C 64% 2.5 mph W4.0 kmh W 8.0 mph12.9 kmh 29.85 in1010.8 mb 0.00 in0.0 mm 0.00 in0.0 mm 0.56 in14.2 mm
09:15 PM 76.1°F24.5°C 62.6°F17.0°C 63% 1.2 mph W1.9 kmh W 8.0 mph12.9 kmh 29.85 in1010.8 mb 0.00 in0.0 mm 0.00 in0.0 mm 0.56 in14.2 mm
09:20 PM 75.8°F24.3°C 63.4°F17.4°C 65% 2.3 mph WNW3.7 kmh WNW 8.0 mph12.9 kmh 29.85 in1010.8 mb 0.00 in0.0 mm 0.00 in0.0 mm 0.56 in14.2 mm
09:25 PM 75.5°F24.2°C 63.1°F17.3°C 65% 1.0 mph WSW1.6 kmh WSW 8.0 mph12.9 kmh 29.85 in1010.8 mb 0.00 in0.0 mm 0.00 in0.0 mm 0.56 in14.2 mm
09:30 PM 74.7°F23.7°C 62.4°F16.9°C 65% 1.1 mph SW1.8 kmh SW 7.0 mph11.3 kmh 29.86 in1011.2 mb 0.00 in0.0 mm 0.00 in0.0 mm 0.56 in14.2 mm
09:35 PM 74.5°F23.6°C 61.5°F16.4°C 64% 2.2 mph W3.5 kmh W 8.0 mph12.9 kmh 29.86 in1011.2 mb 0.00 in0.0 mm 0.00 in0.0 mm 0.56 in14.2 mm
09:40 PM 74.3°F23.5°C 62.2°F16.8°C 66% 1.8 mph W2.9 kmh W 8.0 mph12.9 kmh 29.86 in1011.2 mb 0.00 in0.0 mm 0.00 in0.0 mm 0.56 in14.2 mm
09:45 PM 74.0°F23.3°C 62.1°F16.7°C 66% 1.4 mph WNW2.3 kmh WNW 8.0 mph12.9 kmh 29.86 in1011.2 mb 0.00 in0.0 mm 0.00 in0.0 mm 0.56 in14.2 mm
09:50 PM 73.7°F23.2°C 61.8°F16.6°C 66% 1.3 mph W2.1 kmh W 8.0 mph12.9 kmh 29.87 in1011.5 mb 0.00 in0.0 mm 0.00 in0.0 mm 0.56 in14.2 mm
09:55 PM 73.4°F23.0°C 61.8°F16.6°C 67% 1.5 mph W2.4 kmh W 5.0 mph8.0 kmh 29.87 in1011.5 mb 0.00 in0.0 mm 0.00 in0.0 mm 0.56 in14.2 mm
10:00 PM 73.4°F23.0°C 61.8°F16.6°C 67% 1.2 mph W1.9 kmh W 6.0 mph9.7 kmh 29.88 in1011.9 mb 0.00 in0.0 mm 0.00 in0.0 mm 0.56 in14.2 mm
10:05 PM 73.2°F22.9°C 62.2°F16.8°C 68% 1.1 mph W1.8 kmh W 6.0 mph9.7 kmh 29.88 in1011.9 mb 0.00 in0.0 mm 0.00 in0.0 mm 0.56 in14.2 mm
10:10 PM 72.8°F22.7°C 61.8°F16.6°C 68% 2.7 mph W4.3 kmh W 7.0 mph11.3 kmh 29.88 in1011.9 mb 0.00 in0.0 mm 0.00 in0.0 mm 0.56 in14.2 mm
10:15 PM 72.6°F22.6°C 62.0°F16.7°C 69% 1.4 mph WSW2.3 kmh WSW 7.0 mph11.3 kmh 29.88 in1011.9 mb 0.00 in0.0 mm 0.00 in0.0 mm 0.56 in14.2 mm
10:20 PM 72.5°F22.5°C 61.9°F16.6°C 69% 1.2 mph NW1.9 kmh NW 7.0 mph11.3 kmh 29.88 in1011.9 mb 0.00 in0.0 mm 0.00 in0.0 mm 0.56 in14.2 mm
10:25 PM 72.4°F22.4°C 61.4°F16.3°C 68% 1.0 mph WNW1.6 kmh WNW 6.0 mph9.7 kmh 29.88 in1011.9 mb 0.00 in0.0 mm 0.00 in0.0 mm 0.56 in14.2 mm
10:30 PM 72.4°F22.4°C 61.0°F16.1°C 67% 2.4 mph W3.9 kmh W 5.0 mph8.0 kmh 29.88 in1011.9 mb 0.00 in0.0 mm 0.00 in0.0 mm 0.56 in14.2 mm
10:35 PM 72.2°F22.3°C 60.8°F16.0°C 67% 1.2 mph NNW1.9 kmh NNW 5.0 mph8.0 kmh 29.88 in1011.9 mb 0.00 in0.0 mm 0.00 in0.0 mm 0.56 in14.2 mm
10:40 PM 72.0°F22.2°C 60.6°F15.9°C 67% 2.1 mph W3.4 kmh W 5.0 mph8.0 kmh 29.88 in1011.9 mb 0.00 in0.0 mm 0.00 in0.0 mm 0.56 in14.2 mm
10:45 PM 71.8°F22.1°C 60.2°F15.7°C 67% 1.4 mph WSW2.3 kmh WSW 5.0 mph8.0 kmh 29.88 in1011.9 mb 0.00 in0.0 mm 0.00 in0.0 mm 0.56 in14.2 mm
10:50 PM 71.7°F22.1°C 60.4°F15.8°C 67% 1.6 mph WSW2.6 kmh WSW 4.0 mph6.4 kmh 29.88 in1011.9 mb 0.00 in0.0 mm 0.00 in0.0 mm 0.56 in14.2 mm
10:55 PM 71.5°F21.9°C 60.2°F15.7°C 67% 2.4 mph WSW3.9 kmh WSW 5.0 mph8.0 kmh 29.88 in1011.9 mb 0.00 in0.0 mm 0.00 in0.0 mm 0.56 in14.2 mm
11:00 PM 71.5°F21.9°C 60.0°F15.6°C 67% 1.5 mph WSW2.4 kmh WSW 5.0 mph8.0 kmh 29.88 in1011.9 mb 0.00 in0.0 mm 0.00 in0.0 mm 0.56 in14.2 mm
11:05 PM 71.2°F21.8°C 60.7°F15.9°C 69% 1.1 mph SW1.8 kmh SW 5.0 mph8.0 kmh 29.89 in1012.2 mb 0.00 in0.0 mm 0.00 in0.0 mm 0.56 in14.2 mm
11:10 PM 70.8°F21.6°C 59.9°F15.5°C 68% 1.0 mph NNW1.6 kmh NNW 5.0 mph8.0 kmh 29.89 in1012.2 mb 0.00 in0.0 mm 0.00 in0.0 mm 0.56 in14.2 mm
11:15 PM 70.7°F21.5°C 60.4°F15.8°C 70% 1.2 mph E1.9 kmh E 3.0 mph4.8 kmh 29.89 in1012.2 mb 0.00 in0.0 mm 0.00 in0.0 mm 0.56 in14.2 mm
11:20 PM 70.5°F21.4°C 59.8°F15.4°C 69% 1.3 mph SW2.1 kmh SW 3.0 mph4.8 kmh 29.89 in1012.2 mb 0.00 in0.0 mm 0.00 in0.0 mm 0.56 in14.2 mm
11:25 PM 70.6°F21.4°C 59.5°F15.3°C 68% 1.2 mph SSW1.9 kmh SSW 3.0 mph4.8 kmh 29.89 in1012.2 mb 0.00 in0.0 mm 0.00 in0.0 mm 0.56 in14.2 mm
11:30 PM 70.4°F21.3°C 60.3°F15.7°C 70% 1.0 mph SSW1.6 kmh SSW 3.0 mph4.8 kmh 29.89 in1012.2 mb 0.00 in0.0 mm 0.00 in0.0 mm 0.56 in14.2 mm
11:35 PM 70.2°F21.2°C 60.1°F15.6°C 70% Calm Calm 3.0 mph4.8 kmh 29.89 in1012.2 mb 0.00 in0.0 mm 0.00 in0.0 mm 0.56 in14.2 mm
11:40 PM 69.8°F21.0°C 60.0°F15.6°C 71% 1.1 mph SSW1.8 kmh SSW 2.0 mph3.2 kmh 29.89 in1012.2 mb 0.00 in0.0 mm 0.00 in0.0 mm 0.56 in14.2 mm
11:45 PM 69.6°F20.9°C 60.2°F15.7°C 72% 1.0 mph SSE1.6 kmh SSE 3.0 mph4.8 kmh 29.89 in1012.2 mb 0.00 in0.0 mm 0.00 in0.0 mm 0.56 in14.2 mm
11:50 PM 69.4°F20.8°C 60.4°F15.8°C 73% 1.0 mph SSE1.6 kmh SSE 3.0 mph4.8 kmh 29.89 in1012.2 mb 0.00 in0.0 mm 0.00 in0.0 mm 0.56 in14.2 mm
11:55 PM 69.2°F20.7°C 59.9°F15.5°C 72% 1.5 mph WSW2.4 kmh WSW 3.0 mph4.8 kmh 29.89 in1012.2 mb 0.00 in0.0 mm 0.00 in0.0 mm 0.56 in14.2 mm